sensor_id;sensor_type;location;lat;lon;timestamp;P1;durP1;ratioP1;P2;durP2;ratioP2
49946;SDS011;35839;48.662;13.300;2023-07-02T05:07:12;7.00;;;4.88;;
49946;SDS011;35839;48.662;13.300;2023-07-02T05:09:37;6.78;;;4.05;;
49946;SDS011;35839;48.662;13.300;2023-07-02T05:12:02;4.90;;;4.15;;
49946;SDS011;35839;48.662;13.300;2023-07-02T05:14:28;10.68;;;4.90;;
49946;SDS011;35839;48.662;13.300;2023-07-02T05:16:53;6.85;;;4.95;;
49946;SDS011;35839;48.662;13.300;2023-07-02T05:19:19;9.05;;;4.78;;
49946;SDS011;35839;48.662;13.300;2023-07-02T05:21:44;7.53;;;4.57;;
49946;SDS011;35839;48.662;13.300;2023-07-02T05:24:09;7.30;;;4.55;;
49946;SDS011;35839;48.662;13.300;2023-07-02T05:26:35;8.02;;;4.57;;
49946;SDS011;35839;48.662;13.300;2023-07-02T05:29:00;5.03;;;4.25;;
49946;SDS011;35839;48.662;13.300;2023-07-02T05:31:26;5.15;;;4.47;;
49946;SDS011;35839;48.662;13.300;2023-07-02T05:33:51;5.65;;;4.45;;
49946;SDS011;35839;48.662;13.300;2023-07-02T05:36:16;4.47;;;4.00;;
49946;SDS011;35839;48.662;13.300;2023-07-02T05:38:42;5.03;;;4.13;;
49946;SDS011;35839;48.662;13.300;2023-07-02T05:41:07;5.28;;;3.60;;
49946;SDS011;35839;48.662;13.300;2023-07-02T05:43:32;4.00;;;3.60;;
49946;SDS011;35839;48.662;13.300;2023-07-02T05:45:58;6.18;;;3.50;;
49946;SDS011;35839;48.662;13.300;2023-07-02T05:48:25;10.02;;;3.90;;
49946;SDS011;35839;48.662;13.300;2023-07-02T05:50:51;4.68;;;3.72;;
49946;SDS011;35839;48.662;13.300;2023-07-02T05:53:16;3.58;;;2.85;;
49946;SDS011;35839;48.662;13.300;2023-07-02T05:55:42;3.95;;;2.92;;
49946;SDS011;35839;48.662;13.300;2023-07-02T05:58:08;4.47;;;3.65;;
49946;SDS011;35839;48.662;13.300;2023-07-02T06:00:33;7.65;;;3.67;;
49946;SDS011;35839;48.662;13.300;2023-07-02T06:02:59;4.72;;;3.70;;
49946;SDS011;35839;48.662;13.300;2023-07-02T06:05:25;5.47;;;3.45;;
49946;SDS011;35839;48.662;13.300;2023-07-02T06:07:50;7.00;;;3.65;;
49946;SDS011;35839;48.662;13.300;2023-07-02T06:10:16;5.80;;;3.55;;
49946;SDS011;35839;48.662;13.300;2023-07-02T06:12:41;4.95;;;3.92;;
49946;SDS011;35839;48.662;13.300;2023-07-02T06:15:08;10.07;;;3.45;;
49946;SDS011;35839;48.662;13.300;2023-07-02T06:17:34;6.75;;;3.80;;
49946;SDS011;35839;48.662;13.300;2023-07-02T06:19:59;4.65;;;3.20;;
49946;SDS011;35839;48.662;13.300;2023-07-02T06:22:24;4.80;;;3.20;;
49946;SDS011;35839;48.662;13.300;2023-07-02T06:24:49;6.88;;;2.95;;
49946;SDS011;35839;48.662;13.300;2023-07-02T06:27:15;4.70;;;3.45;;
49946;SDS011;35839;48.662;13.300;2023-07-02T06:29:40;5.22;;;3.20;;
49946;SDS011;35839;48.662;13.300;2023-07-02T06:32:05;4.10;;;3.17;;
49946;SDS011;35839;48.662;13.300;2023-07-02T06:34:31;4.95;;;3.53;;
49946;SDS011;35839;48.662;13.300;2023-07-02T06:36:56;6.50;;;3.55;;
49946;SDS011;35839;48.662;13.300;2023-07-02T06:39:21;4.22;;;3.47;;
49946;SDS011;35839;48.662;13.300;2023-07-02T06:41:47;7.68;;;3.58;;
49946;SDS011;35839;48.662;13.300;2023-07-02T06:44:12;5.32;;;3.72;;
49946;SDS011;35839;48.662;13.300;2023-07-02T06:46:37;5.55;;;3.70;;
49946;SDS011;35839;48.662;13.300;2023-07-02T06:49:03;5.15;;;3.45;;
49946;SDS011;35839;48.662;13.300;2023-07-02T06:51:28;6.18;;;3.90;;
49946;SDS011;35839;48.662;13.300;2023-07-02T06:53:54;4.40;;;3.20;;
49946;SDS011;35839;48.662;13.300;2023-07-02T06:56:19;32.72;;;24.52;;
49946;SDS011;35839;48.662;13.300;2023-07-02T06:58:44;12.85;;;10.80;;
49946;SDS011;35839;48.662;13.300;2023-07-02T07:01:10;7.28;;;4.35;;
49946;SDS011;35839;48.662;13.300;2023-07-02T07:03:36;4.72;;;3.50;;
49946;SDS011;35839;48.662;13.300;2023-07-02T07:06:02;5.78;;;3.55;;
49946;SDS011;35839;48.662;13.300;2023-07-02T07:08:27;5.13;;;3.10;;
49946;SDS011;35839;48.662;13.300;2023-07-02T07:10:53;5.82;;;3.03;;
49946;SDS011;35839;48.662;13.300;2023-07-02T07:13:18;4.25;;;3.35;;
49946;SDS011;35839;48.662;13.300;2023-07-02T07:15:43;8.50;;;2.80;;
49946;SDS011;35839;48.662;13.300;2023-07-02T07:18:09;7.88;;;3.10;;
49946;SDS011;35839;48.662;13.300;2023-07-02T07:20:34;6.30;;;3.20;;
49946;SDS011;35839;48.662;13.300;2023-07-02T07:23:02;3.83;;;2.40;;
49946;SDS011;35839;48.662;13.300;2023-07-02T07:25:28;12.57;;;3.15;;
49946;SDS011;35839;48.662;13.300;2023-07-02T07:27:54;6.70;;;3.13;;
49946;SDS011;35839;48.662;13.300;2023-07-02T07:30:19;5.00;;;3.33;;
49946;SDS011;35839;48.662;13.300;2023-07-02T07:32:48;5.53;;;2.92;;
49946;SDS011;35839;48.662;13.300;2023-07-02T07:35:14;3.40;;;2.55;;
49946;SDS011;35839;48.662;13.300;2023-07-02T07:37:40;5.90;;;3.33;;
49946;SDS011;35839;48.662;13.300;2023-07-02T07:40:05;5.28;;;3.80;;
49946;SDS011;35839;48.662;13.300;2023-07-02T07:42:31;5.88;;;2.85;;
49946;SDS011;35839;48.662;13.300;2023-07-02T07:44:56;4.95;;;2.83;;
49946;SDS011;35839;48.662;13.300;2023-07-02T07:47:22;5.75;;;2.90;;
49946;SDS011;35839;48.662;13.300;2023-07-02T07:49:47;6.32;;;3.50;;
49946;SDS011;35839;48.662;13.300;2023-07-02T07:52:12;4.78;;;2.90;;
49946;SDS011;35839;48.662;13.300;2023-07-02T07:54:38;6.07;;;3.30;;
49946;SDS011;35839;48.662;13.300;2023-07-02T07:57:03;5.95;;;3.10;;
49946;SDS011;35839;48.662;13.300;2023-07-02T07:59:29;5.05;;;2.90;;
49946;SDS011;35839;48.662;13.300;2023-07-02T08:01:55;7.85;;;3.10;;
49946;SDS011;35839;48.662;13.300;2023-07-02T08:04:20;4.35;;;2.90;;
49946;SDS011;35839;48.662;13.300;2023-07-02T08:06:45;5.82;;;2.97;;
49946;SDS011;35839;48.662;13.300;2023-07-02T08:09:10;5.43;;;3.08;;
49946;SDS011;35839;48.662;13.300;2023-07-02T08:11:36;7.28;;;3.17;;
49946;SDS011;35839;48.662;13.300;2023-07-02T08:14:01;7.47;;;3.25;;
49946;SDS011;35839;48.662;13.300;2023-07-02T08:16:27;6.10;;;3.08;;
49946;SDS011;35839;48.662;13.300;2023-07-02T08:18:52;4.90;;;2.85;;
49946;SDS011;35839;48.662;13.300;2023-07-02T08:21:17;5.78;;;3.25;;
49946;SDS011;35839;48.662;13.300;2023-07-02T08:23:43;6.93;;;2.72;;
49946;SDS011;35839;48.662;13.300;2023-07-02T08:26:09;7.50;;;3.38;;
49946;SDS011;35839;48.662;13.300;2023-07-02T08:28:35;9.02;;;2.92;;
49946;SDS011;35839;48.662;13.300;2023-07-02T08:31:01;6.50;;;3.42;;
49946;SDS011;35839;48.662;13.300;2023-07-02T08:33:26;6.70;;;3.00;;
49946;SDS011;35839;48.662;13.300;2023-07-02T08:35:52;10.27;;;4.07;;
49946;SDS011;35839;48.662;13.300;2023-07-02T08:38:17;5.30;;;3.92;;
49946;SDS011;35839;48.662;13.300;2023-07-02T08:40:42;10.23;;;3.95;;
49946;SDS011;35839;48.662;13.300;2023-07-02T08:43:07;9.05;;;4.25;;
49946;SDS011;35839;48.662;13.300;2023-07-02T08:45:33;5.50;;;3.70;;
49946;SDS011;35839;48.662;13.300;2023-07-02T08:47:58;8.70;;;4.30;;
49946;SDS011;35839;48.662;13.300;2023-07-02T08:50:24;7.15;;;4.13;;
49946;SDS011;35839;48.662;13.300;2023-07-02T08:52:50;10.57;;;4.78;;
49946;SDS011;35839;48.662;13.300;2023-07-02T08:55:15;11.85;;;5.80;;
49946;SDS011;35839;48.662;13.300;2023-07-02T08:57:42;10.57;;;4.50;;
49946;SDS011;35839;48.662;13.300;2023-07-02T09:00:14;9.20;;;4.95;;
49946;SDS011;35839;48.662;13.300;2023-07-02T09:02:40;8.35;;;4.88;;
49946;SDS011;35839;48.662;13.300;2023-07-02T09:05:05;8.43;;;4.50;;
49946;SDS011;35839;48.662;13.300;2023-07-02T09:07:31;8.15;;;4.88;;
49946;SDS011;35839;48.662;13.300;2023-07-02T09:09:56;8.75;;;5.60;;
49946;SDS011;35839;48.662;13.300;2023-07-02T09:12:25;6.50;;;4.38;;
49946;SDS011;35839;48.662;13.300;2023-07-02T09:14:57;15.43;;;5.70;;
49946;SDS011;35839;48.662;13.300;2023-07-02T09:17:28;9.25;;;5.35;;
49946;SDS011;35839;48.662;13.300;2023-07-02T09:19:55;9.18;;;5.13;;
49946;SDS011;35839;48.662;13.300;2023-07-02T09:22:21;11.00;;;6.50;;
49946;SDS011;35839;48.662;13.300;2023-07-02T09:24:56;10.00;;;5.65;;
49946;SDS011;35839;48.662;13.300;2023-07-02T09:27:36;15.25;;;6.28;;
49946;SDS011;35839;48.662;13.300;2023-07-02T09:30:09;10.68;;;7.30;;
49946;SDS011;35839;48.662;13.300;2023-07-02T09:32:38;10.70;;;6.63;;
49946;SDS011;35839;48.662;13.300;2023-07-02T09:35:04;10.55;;;6.93;;
49946;SDS011;35839;48.662;13.300;2023-07-02T09:37:30;12.50;;;6.38;;
49946;SDS011;35839;48.662;13.300;2023-07-02T09:39:56;8.75;;;6.00;;
49946;SDS011;35839;48.662;13.300;2023-07-02T09:42:22;10.07;;;6.25;;
49946;SDS011;35839;48.662;13.300;2023-07-02T09:44:51;7.47;;;5.00;;
49946;SDS011;35839;48.662;13.300;2023-07-02T09:47:19;6.07;;;4.03;;
49946;SDS011;35839;48.662;13.300;2023-07-02T09:49:49;8.77;;;4.75;;
49946;SDS011;35839;48.662;13.300;2023-07-02T09:52:19;6.88;;;4.78;;
49946;SDS011;35839;48.662;13.300;2023-07-02T09:54:46;7.25;;;4.32;;
49946;SDS011;35839;48.662;13.300;2023-07-02T09:57:11;7.70;;;5.00;;
49946;SDS011;35839;48.662;13.300;2023-07-02T09:59:37;8.50;;;4.85;;
49946;SDS011;35839;48.662;13.300;2023-07-02T10:02:03;11.85;;;4.50;;
49946;SDS011;35839;48.662;13.300;2023-07-02T10:04:38;7.90;;;4.75;;
49946;SDS011;35839;48.662;13.300;2023-07-02T10:07:08;7.45;;;4.80;;
49946;SDS011;35839;48.662;13.300;2023-07-02T10:09:35;6.35;;;4.85;;
49946;SDS011;35839;48.662;13.300;2023-07-02T10:12:02;8.43;;;4.65;;
49946;SDS011;35839;48.662;13.300;2023-07-02T10:14:43;8.73;;;4.07;;
49946;SDS011;35839;48.662;13.300;2023-07-02T10:17:09;11.23;;;5.50;;
49946;SDS011;35839;48.662;13.300;2023-07-02T10:19:34;10.18;;;5.40;;
49946;SDS011;35839;48.662;13.300;2023-07-02T10:22:03;15.75;;;5.78;;
49946;SDS011;35839;48.662;13.300;2023-07-02T10:24:29;10.57;;;5.32;;
49946;SDS011;35839;48.662;13.300;2023-07-02T10:26:56;9.35;;;5.50;;
49946;SDS011;35839;48.662;13.300;2023-07-02T10:29:23;7.88;;;5.40;;
49946;SDS011;35839;48.662;13.300;2023-07-02T10:31:53;11.93;;;6.25;;
49946;SDS011;35839;48.662;13.300;2023-07-02T10:36:55;9.00;;;6.22;;
49946;SDS011;35839;48.662;13.300;2023-07-02T10:39:22;11.23;;;6.20;;
49946;SDS011;35839;48.662;13.300;2023-07-02T10:41:47;8.38;;;6.07;;
49946;SDS011;35839;48.662;13.300;2023-07-02T10:44:14;11.52;;;6.15;;
49946;SDS011;35839;48.662;13.300;2023-07-02T10:46:44;8.75;;;5.35;;
49946;SDS011;35839;48.662;13.300;2023-07-02T10:49:10;9.55;;;6.13;;
49946;SDS011;35839;48.662;13.300;2023-07-02T10:51:36;10.32;;;6.22;;
49946;SDS011;35839;48.662;13.300;2023-07-02T10:54:02;15.65;;;6.43;;
49946;SDS011;35839;48.662;13.300;2023-07-02T10:56:29;10.82;;;5.75;;
49946;SDS011;35839;48.662;13.300;2023-07-02T10:58:55;14.18;;;6.05;;
49946;SDS011;35839;48.662;13.300;2023-07-02T11:01:25;7.45;;;5.63;;
49946;SDS011;35839;48.662;13.300;2023-07-02T11:03:58;11.07;;;6.82;;
49946;SDS011;35839;48.662;13.300;2023-07-02T11:06:28;9.20;;;5.80;;
49946;SDS011;35839;48.662;13.300;2023-07-02T11:08:53;13.65;;;6.60;;
49946;SDS011;35839;48.662;13.300;2023-07-02T11:11:20;10.77;;;6.95;;
49946;SDS011;35839;48.662;13.300;2023-07-02T11:13:50;9.70;;;6.32;;
49946;SDS011;35839;48.662;13.300;2023-07-02T11:16:17;14.02;;;7.82;;
49946;SDS011;35839;48.662;13.300;2023-07-02T11:18:53;15.95;;;7.72;;
49946;SDS011;35839;48.662;13.300;2023-07-02T11:21:35;10.98;;;7.22;;
49946;SDS011;35839;48.662;13.300;2023-07-02T11:24:05;12.55;;;7.18;;
49946;SDS011;35839;48.662;13.300;2023-07-02T11:26:40;9.90;;;6.93;;
49946;SDS011;35839;48.662;13.300;2023-07-02T11:29:12;9.80;;;6.60;;
49946;SDS011;35839;48.662;13.300;2023-07-02T11:31:42;13.30;;;7.18;;
49946;SDS011;35839;48.662;13.300;2023-07-02T11:34:12;16.23;;;8.63;;
49946;SDS011;35839;48.662;13.300;2023-07-02T11:36:38;13.38;;;7.72;;
49946;SDS011;35839;48.662;13.300;2023-07-02T11:39:04;13.35;;;7.80;;
49946;SDS011;35839;48.662;13.300;2023-07-02T11:41:36;12.30;;;7.35;;
49946;SDS011;35839;48.662;13.300;2023-07-02T11:44:03;12.65;;;7.80;;
49946;SDS011;35839;48.662;13.300;2023-07-02T11:46:28;12.60;;;8.25;;
49946;SDS011;35839;48.662;13.300;2023-07-02T11:48:53;11.93;;;7.97;;
49946;SDS011;35839;48.662;13.300;2023-07-02T11:51:18;10.60;;;7.25;;
49946;SDS011;35839;48.662;13.300;2023-07-02T11:53:44;12.25;;;7.63;;
49946;SDS011;35839;48.662;13.300;2023-07-02T11:56:09;12.32;;;7.97;;
49946;SDS011;35839;48.662;13.300;2023-07-02T11:58:34;13.73;;;7.70;;
49946;SDS011;35839;48.662;13.300;2023-07-02T12:01:00;15.32;;;7.32;;
49946;SDS011;35839;48.662;13.300;2023-07-02T12:03:25;11.65;;;7.82;;
49946;SDS011;35839;48.662;13.300;2023-07-02T12:05:50;14.48;;;7.05;;
49946;SDS011;35839;48.662;13.300;2023-07-02T12:08:16;15.45;;;7.60;;
49946;SDS011;35839;48.662;13.300;2023-07-02T12:10:42;10.65;;;7.63;;
49946;SDS011;35839;48.662;13.300;2023-07-02T12:13:08;15.50;;;9.30;;
49946;SDS011;35839;48.662;13.300;2023-07-02T12:15:34;11.40;;;7.43;;
49946;SDS011;35839;48.662;13.300;2023-07-02T12:17:59;12.60;;;8.35;;
49946;SDS011;35839;48.662;13.300;2023-07-02T12:20:24;12.65;;;7.70;;
49946;SDS011;35839;48.662;13.300;2023-07-02T12:22:50;11.10;;;7.40;;
49946;SDS011;35839;48.662;13.300;2023-07-02T12:25:15;12.32;;;7.68;;
49946;SDS011;35839;48.662;13.300;2023-07-02T12:27:41;13.65;;;7.78;;
49946;SDS011;35839;48.662;13.300;2023-07-02T12:30:06;13.32;;;8.10;;
49946;SDS011;35839;48.662;13.300;2023-07-02T12:32:33;15.07;;;8.30;;
49946;SDS011;35839;48.662;13.300;2023-07-02T12:34:59;11.35;;;7.80;;
49946;SDS011;35839;48.662;13.300;2023-07-02T12:37:24;13.20;;;8.25;;
49946;SDS011;35839;48.662;13.300;2023-07-02T12:39:49;14.93;;;8.50;;
49946;SDS011;35839;48.662;13.300;2023-07-02T12:42:15;12.88;;;8.13;;
49946;SDS011;35839;48.662;13.300;2023-07-02T12:44:41;11.43;;;7.35;;
49946;SDS011;35839;48.662;13.300;2023-07-02T12:47:06;12.98;;;7.90;;
49946;SDS011;35839;48.662;13.300;2023-07-02T12:49:31;12.48;;;7.35;;
49946;SDS011;35839;48.662;13.300;2023-07-02T12:51:57;12.98;;;9.07;;
49946;SDS011;35839;48.662;13.300;2023-07-02T12:54:22;17.38;;;10.15;;
49946;SDS011;35839;48.662;13.300;2023-07-02T12:56:47;10.45;;;7.38;;
49946;SDS011;35839;48.662;13.300;2023-07-02T12:59:14;12.85;;;7.43;;
49946;SDS011;35839;48.662;13.300;2023-07-02T13:01:39;13.52;;;7.80;;
49946;SDS011;35839;48.662;13.300;2023-07-02T13:04:04;13.27;;;7.43;;
49946;SDS011;35839;48.662;13.300;2023-07-02T13:06:30;12.75;;;8.43;;
49946;SDS011;35839;48.662;13.300;2023-07-02T13:08:59;13.82;;;7.80;;
49946;SDS011;35839;48.662;13.300;2023-07-02T13:11:24;11.45;;;7.38;;
49946;SDS011;35839;48.662;13.300;2023-07-02T13:13:50;14.95;;;7.85;;
49946;SDS011;35839;48.662;13.300;2023-07-02T13:16:16;11.60;;;7.75;;
49946;SDS011;35839;48.662;13.300;2023-07-02T13:18:41;9.98;;;7.00;;
49946;SDS011;35839;48.662;13.300;2023-07-02T13:21:06;12.15;;;7.28;;
49946;SDS011;35839;48.662;13.300;2023-07-02T13:23:31;12.65;;;7.65;;
49946;SDS011;35839;48.662;13.300;2023-07-02T13:25:57;14.10;;;7.82;;
49946;SDS011;35839;48.662;13.300;2023-07-02T13:28:22;14.80;;;8.23;;
49946;SDS011;35839;48.662;13.300;2023-07-02T13:30:48;10.18;;;7.18;;
49946;SDS011;35839;48.662;13.300;2023-07-02T13:33:13;11.25;;;7.35;;
49946;SDS011;35839;48.662;13.300;2023-07-02T13:35:39;10.82;;;7.35;;
49946;SDS011;35839;48.662;13.300;2023-07-02T13:38:04;16.67;;;7.97;;
49946;SDS011;35839;48.662;13.300;2023-07-02T13:40:30;11.77;;;7.85;;
49946;SDS011;35839;48.662;13.300;2023-07-02T13:42:55;14.00;;;7.30;;
49946;SDS011;35839;48.662;13.300;2023-07-02T13:45:21;10.93;;;7.03;;
49946;SDS011;35839;48.662;13.300;2023-07-02T13:47:46;9.73;;;7.28;;
49946;SDS011;35839;48.662;13.300;2023-07-02T13:50:11;10.80;;;7.53;;
49946;SDS011;35839;48.662;13.300;2023-07-02T13:52:37;12.18;;;7.70;;
49946;SDS011;35839;48.662;13.300;2023-07-02T13:55:02;11.93;;;7.57;;
49946;SDS011;35839;48.662;13.300;2023-07-02T13:57:28;13.57;;;8.07;;
49946;SDS011;35839;48.662;13.300;2023-07-02T13:59:54;12.07;;;7.85;;
49946;SDS011;35839;48.662;13.300;2023-07-02T14:02:21;12.43;;;7.47;;
49946;SDS011;35839;48.662;13.300;2023-07-02T14:04:47;13.30;;;8.07;;
49946;SDS011;35839;48.662;13.300;2023-07-02T14:07:13;11.50;;;6.85;;
49946;SDS011;35839;48.662;13.300;2023-07-02T14:09:38;12.18;;;7.82;;
49946;SDS011;35839;48.662;13.300;2023-07-02T14:12:04;9.98;;;7.07;;
49946;SDS011;35839;48.662;13.300;2023-07-02T14:14:29;8.88;;;7.05;;
49946;SDS011;35839;48.662;13.300;2023-07-02T14:16:55;15.52;;;8.05;;
49946;SDS011;35839;48.662;13.300;2023-07-02T14:19:20;11.57;;;7.97;;
49946;SDS011;35839;48.662;13.300;2023-07-02T14:21:45;13.05;;;7.43;;
49946;SDS011;35839;48.662;13.300;2023-07-02T14:24:11;11.82;;;7.95;;
49946;SDS011;35839;48.662;13.300;2023-07-02T14:26:36;11.10;;;7.10;;
49946;SDS011;35839;48.662;13.300;2023-07-02T14:29:02;10.27;;;7.05;;
49946;SDS011;35839;48.662;13.300;2023-07-02T14:31:27;10.32;;;7.28;;
49946;SDS011;35839;48.662;13.300;2023-07-02T14:33:52;12.55;;;7.88;;
49946;SDS011;35839;48.662;13.300;2023-07-02T14:36:18;13.63;;;7.63;;
49946;SDS011;35839;48.662;13.300;2023-07-02T14:38:43;10.25;;;7.20;;
49946;SDS011;35839;48.662;13.300;2023-07-02T14:41:09;12.15;;;7.82;;
49946;SDS011;35839;48.662;13.300;2023-07-02T14:43:34;12.60;;;7.18;;
49946;SDS011;35839;48.662;13.300;2023-07-02T14:46:00;10.90;;;6.72;;
49946;SDS011;35839;48.662;13.300;2023-07-02T14:48:27;9.43;;;7.05;;
49946;SDS011;35839;48.662;13.300;2023-07-02T14:50:54;13.77;;;7.00;;
49946;SDS011;35839;48.662;13.300;2023-07-02T14:53:21;11.27;;;6.97;;
49946;SDS011;35839;48.662;13.300;2023-07-02T14:55:47;11.95;;;6.35;;
49946;SDS011;35839;48.662;13.300;2023-07-02T14:58:14;10.00;;;6.57;;
49946;SDS011;35839;48.662;13.300;2023-07-02T15:00:44;12.10;;;6.68;;
49946;SDS011;35839;48.662;13.300;2023-07-02T15:03:10;11.45;;;6.78;;
49946;SDS011;35839;48.662;13.300;2023-07-02T15:05:35;11.00;;;6.72;;
49946;SDS011;35839;48.662;13.300;2023-07-02T15:08:00;9.88;;;6.70;;
49946;SDS011;35839;48.662;13.300;2023-07-02T15:10:26;9.63;;;7.25;;
49946;SDS011;35839;48.662;13.300;2023-07-02T15:12:51;12.23;;;7.78;;
49946;SDS011;35839;48.662;13.300;2023-07-02T15:15:16;9.23;;;6.60;;
49946;SDS011;35839;48.662;13.300;2023-07-02T15:17:42;10.25;;;6.97;;
49946;SDS011;35839;48.662;13.300;2023-07-02T15:20:07;12.45;;;7.72;;
49946;SDS011;35839;48.662;13.300;2023-07-02T15:22:33;11.80;;;8.32;;
49946;SDS011;35839;48.662;13.300;2023-07-02T15:24:58;12.15;;;8.23;;
49946;SDS011;35839;48.662;13.300;2023-07-02T15:27:23;11.38;;;8.52;;
49946;SDS011;35839;48.662;13.300;2023-07-02T15:29:49;11.75;;;8.10;;
49946;SDS011;35839;48.662;13.300;2023-07-02T15:32:14;12.57;;;8.10;;
49946;SDS011;35839;48.662;13.300;2023-07-02T15:34:39;14.43;;;9.20;;
49946;SDS011;35839;48.662;13.300;2023-07-02T15:37:05;14.30;;;10.15;;
49946;SDS011;35839;48.662;13.300;2023-07-02T15:39:30;13.80;;;9.63;;
49946;SDS011;35839;48.662;13.300;2023-07-02T15:41:58;14.40;;;10.23;;
49946;SDS011;35839;48.662;13.300;2023-07-02T15:44:24;12.23;;;9.80;;
49946;SDS011;35839;48.662;13.300;2023-07-02T15:46:50;16.30;;;10.35;;
49946;SDS011;35839;48.662;13.300;2023-07-02T15:49:15;17.17;;;11.18;;
49946;SDS011;35839;48.662;13.300;2023-07-02T15:51:41;13.88;;;11.07;;
49946;SDS011;35839;48.662;13.300;2023-07-02T15:54:07;13.02;;;10.48;;
49946;SDS011;35839;48.662;13.300;2023-07-02T15:56:33;14.52;;;10.40;;
49946;SDS011;35839;48.662;13.300;2023-07-02T15:58:59;16.05;;;11.20;;
49946;SDS011;35839;48.662;13.300;2023-07-02T16:01:25;17.30;;;12.80;;
49946;SDS011;35839;48.662;13.300;2023-07-02T16:03:51;18.02;;;12.43;;
49946;SDS011;35839;48.662;13.300;2023-07-02T16:06:17;20.20;;;12.15;;
49946;SDS011;35839;48.662;13.300;2023-07-02T16:08:43;19.17;;;13.48;;
49946;SDS011;35839;48.662;13.300;2023-07-02T16:11:09;16.48;;;11.80;;
49946;SDS011;35839;48.662;13.300;2023-07-02T16:13:36;15.30;;;11.45;;
49946;SDS011;35839;48.662;13.300;2023-07-02T16:16:03;17.27;;;12.55;;
49946;SDS011;35839;48.662;13.300;2023-07-02T16:18:29;20.15;;;13.52;;
49946;SDS011;35839;48.662;13.300;2023-07-02T16:20:58;16.38;;;12.85;;
49946;SDS011;35839;48.662;13.300;2023-07-02T16:23:25;17.70;;;12.90;;
49946;SDS011;35839;48.662;13.300;2023-07-02T16:26:01;17.02;;;12.65;;
49946;SDS011;35839;48.662;13.300;2023-07-02T16:30:55;17.45;;;13.23;;
49946;SDS011;35839;48.662;13.300;2023-07-02T16:33:20;16.50;;;13.02;;
49946;SDS011;35839;48.662;13.300;2023-07-02T16:35:46;21.05;;;14.40;;
49946;SDS011;35839;48.662;13.300;2023-07-02T16:38:11;18.65;;;13.60;;
49946;SDS011;35839;48.662;13.300;2023-07-02T16:40:37;20.63;;;14.68;;
49946;SDS011;35839;48.662;13.300;2023-07-02T16:43:02;20.73;;;14.27;;
49946;SDS011;35839;48.662;13.300;2023-07-02T16:45:28;20.73;;;14.40;;
49946;SDS011;35839;48.662;13.300;2023-07-02T16:47:53;19.00;;;14.90;;
49946;SDS011;35839;48.662;13.300;2023-07-02T16:50:19;17.00;;;13.25;;
49946;SDS011;35839;48.662;13.300;2023-07-02T16:52:44;17.95;;;13.98;;
49946;SDS011;35839;48.662;13.300;2023-07-02T16:55:10;21.63;;;14.80;;
49946;SDS011;35839;48.662;13.300;2023-07-02T16:57:36;19.83;;;15.00;;
49946;SDS011;35839;48.662;13.300;2023-07-02T17:00:02;20.05;;;14.60;;
49946;SDS011;35839;48.662;13.300;2023-07-02T17:02:28;19.23;;;15.00;;
49946;SDS011;35839;48.662;13.300;2023-07-02T17:04:54;18.35;;;14.25;;
49946;SDS011;35839;48.662;13.300;2023-07-02T17:07:19;19.08;;;14.88;;
49946;SDS011;35839;48.662;13.300;2023-07-02T17:09:52;21.08;;;15.25;;
49946;SDS011;35839;48.662;13.300;2023-07-02T17:12:18;19.75;;;15.20;;
49946;SDS011;35839;48.662;13.300;2023-07-02T17:14:45;21.90;;;15.82;;
49946;SDS011;35839;48.662;13.300;2023-07-02T17:17:13;23.35;;;16.02;;
49946;SDS011;35839;48.662;13.300;2023-07-02T17:19:41;24.17;;;16.98;;
49946;SDS011;35839;48.662;13.300;2023-07-02T17:22:12;20.80;;;15.43;;
49946;SDS011;35839;48.662;13.300;2023-07-02T17:24:40;19.52;;;15.32;;
49946;SDS011;35839;48.662;13.300;2023-07-02T17:27:08;22.02;;;16.33;;
49946;SDS011;35839;48.662;13.300;2023-07-02T17:29:35;23.25;;;16.40;;
49946;SDS011;35839;48.662;13.300;2023-07-02T17:32:02;21.00;;;16.08;;
49946;SDS011;35839;48.662;13.300;2023-07-02T17:34:29;22.33;;;15.95;;
49946;SDS011;35839;48.662;13.300;2023-07-02T17:36:57;23.55;;;16.58;;
49946;SDS011;35839;48.662;13.300;2023-07-02T17:41:51;23.67;;;17.00;;
49946;SDS011;35839;48.662;13.300;2023-07-02T17:44:18;21.40;;;15.53;;
49946;SDS011;35839;48.662;13.300;2023-07-02T17:46:50;47.70;;;19.67;;
49946;SDS011;35839;48.662;13.300;2023-07-02T17:49:17;38.22;;;17.27;;
49946;SDS011;35839;48.662;13.300;2023-07-02T17:51:43;27.58;;;17.15;;
49946;SDS011;35839;48.662;13.300;2023-07-02T17:54:09;33.38;;;21.95;;
49946;SDS011;35839;48.662;13.300;2023-07-02T17:56:34;26.08;;;17.17;;
49946;SDS011;35839;48.662;13.300;2023-07-02T17:58:59;24.00;;;16.25;;
49946;SDS011;35839;48.662;13.300;2023-07-02T18:01:25;26.77;;;16.98;;
49946;SDS011;35839;48.662;13.300;2023-07-02T18:03:50;35.75;;;18.27;;
49946;SDS011;35839;48.662;13.300;2023-07-02T18:06:16;24.80;;;17.17;;
49946;SDS011;35839;48.662;13.300;2023-07-02T18:08:42;31.55;;;17.73;;
49946;SDS011;35839;48.662;13.300;2023-07-02T18:11:08;22.02;;;15.82;;
49946;SDS011;35839;48.662;13.300;2023-07-02T18:13:34;24.73;;;18.25;;
49946;SDS011;35839;48.662;13.300;2023-07-02T18:16:00;24.05;;;16.50;;
49946;SDS011;35839;48.662;13.300;2023-07-02T18:18:25;26.42;;;17.95;;
49946;SDS011;35839;48.662;13.300;2023-07-02T18:20:51;26.40;;;18.58;;
49946;SDS011;35839;48.662;13.300;2023-07-02T18:23:17;23.65;;;16.48;;
49946;SDS011;35839;48.662;13.300;2023-07-02T18:25:42;21.27;;;16.10;;
49946;SDS011;35839;48.662;13.300;2023-07-02T18:28:09;25.52;;;17.25;;
49946;SDS011;35839;48.662;13.300;2023-07-02T18:30:37;27.30;;;17.15;;
49946;SDS011;35839;48.662;13.300;2023-07-02T18:33:07;26.98;;;17.65;;
49946;SDS011;35839;48.662;13.300;2023-07-02T18:35:33;26.08;;;18.00;;
49946;SDS011;35839;48.662;13.300;2023-07-02T18:37:59;29.00;;;18.50;;
49946;SDS011;35839;48.662;13.300;2023-07-02T18:40:26;27.92;;;18.48;;
49946;SDS011;35839;48.662;13.300;2023-07-02T18:42:54;24.73;;;18.35;;
49946;SDS011;35839;48.662;13.300;2023-07-02T18:45:20;26.73;;;18.05;;
49946;SDS011;35839;48.662;13.300;2023-07-02T18:47:46;24.33;;;17.48;;
49946;SDS011;35839;48.662;13.300;2023-07-02T18:50:13;26.05;;;18.77;;
49946;SDS011;35839;48.662;13.300;2023-07-02T18:52:39;24.30;;;16.55;;
49946;SDS011;35839;48.662;13.300;2023-07-02T18:55:05;24.48;;;16.70;;
49946;SDS011;35839;48.662;13.300;2023-07-02T18:57:31;24.90;;;16.55;;
49946;SDS011;35839;48.662;13.300;2023-07-02T18:59:56;27.20;;;16.77;;
49946;SDS011;35839;48.662;13.300;2023-07-02T19:02:21;25.30;;;17.33;;
49946;SDS011;35839;48.662;13.300;2023-07-02T19:04:48;27.52;;;18.00;;
49946;SDS011;35839;48.662;13.300;2023-07-02T19:07:14;26.60;;;18.55;;
49946;SDS011;35839;48.662;13.300;2023-07-02T19:09:39;24.38;;;16.67;;
49946;SDS011;35839;48.662;13.300;2023-07-02T19:12:05;26.95;;;17.42;;
49946;SDS011;35839;48.662;13.300;2023-07-02T19:17:03;32.08;;;16.98;;
49946;SDS011;35839;48.662;13.300;2023-07-02T19:19:31;29.48;;;17.23;;
49946;SDS011;35839;48.662;13.300;2023-07-02T19:21:56;24.88;;;16.55;;
49946;SDS011;35839;48.662;13.300;2023-07-02T19:24:21;26.70;;;17.20;;
49946;SDS011;35839;48.662;13.300;2023-07-02T19:26:47;27.75;;;17.85;;
49946;SDS011;35839;48.662;13.300;2023-07-02T19:29:13;25.30;;;15.77;;
49946;SDS011;35839;48.662;13.300;2023-07-02T19:31:39;27.67;;;17.05;;
49946;SDS011;35839;48.662;13.300;2023-07-02T19:34:10;22.63;;;17.13;;